Weersoverzicht van METAR-stations binnen 150 km

EHRD - Rotterdam Airport
Afstand tot weerstation: ZO 28 km
Update: 20-10-2019 07:55
Gedeeltelijk bewolkt
Gedeeltelijk bewolkt
 Wind van Z
Wind: Z 7 km/h
Temperatuur: 10°C
Gevoelstemperatuur: 9°C
Dauwpunt: 10°C
Luchtvochtigheid: 100%
Luchtdruk: 1007 hPa
Bewolking: Gedeeltelijk bewolkt
Zicht: 10 km
2019/10/20 05:55 EHRD 200555Z AUTO 18004KT 150V210 9999 NSC 10/10 Q1007 NOSIG
EHSC - Goeree Le Sea (Platform ter hoogte van Zeeland)
Afstand tot weerstation: WZW 36 km
Update: 20-10-2019 07:55

 Wind van NW
Wind: NW 13 km/h
Temperatuur: 14°C
Dauwpunt: 9°C
Luchtvochtigheid: 72%
Luchtdruk: 1006 hPa
Zicht: 10 km
2019/10/20 05:55 EHSC 200555Z AUTO 31007KT 9999 ///////// 14/09 Q1006 W15/H7
 
EHAM - A'dam Schiphol
Afstand tot weerstation: ONO 51 km
Update: 20-10-2019 07:55
Enkele wolken
Enkele wolken
 Wind van ZZO
Wind: ZZO 7 km/h
Temperatuur: 9°C
Gevoelstemperatuur: 8°C
Dauwpunt: 8°C
Luchtvochtigheid: 94%
Luchtdruk: 1007 hPa
Bewolking: Enkele wolken
Zicht: 10 km
Details Bewolking: Enkele wolken 671 m
2019/10/20 05:55 EHAM 200555Z 16004KT 9999 FEW022 09/08 Q1007 NOSIG
EHSA - Euro Platform (Ter hoogte van Zeeland)
Afstand tot weerstation: W 58 km
Update: 20-10-2019 07:55

 Wind van W
Wind: W 11 km/h
Temperatuur: 14°C
Dauwpunt: 8°C
Luchtvochtigheid: 67%
Luchtdruk: 1006 hPa
Zicht: 10 km
2019/10/20 05:55 EHSA 200555Z AUTO 27006KT 9999 ///////// 14/08 Q1006 W13/H7
 
EHPG - P11-B Sea (Platform ter hoogte van Zuid Holland)
Afstand tot weerstation: NW 60 km
Update: 20-10-2019 07:55
Gedeeltelijk bewolkt
Gedeeltelijk bewolkt
 Wind van calm
Wind: Kalm
Temperatuur: 13°C
Dauwpunt: 8°C
Luchtvochtigheid: 72%
Luchtdruk: 1006 hPa
Bewolking: Gedeeltelijk bewolkt
Zicht: 10 km
2019/10/20 05:55 EHPG 200555Z AUTO 00000KT 9999 NSC 13/08 Q1006 W///H///
EHWO - Vliegveld Woensdrecht
Afstand tot weerstation: ZZO 65 km
Update: 20-10-2019 08:08
Mist, Zwaar bewolkt
Mist, Zwaar bewolkt
 Wind van ZZO
Wind: ZZO 2 km/h
Temperatuur: 7°C
Dauwpunt: 6°C
Luchtvochtigheid: 93%
Luchtdruk: 1007 hPa
Overzicht: Mist
Bewolking: Zwaar bewolkt
Zicht: 5 km
Details Bewolking: Zwaar bewolkt 3658 m
2019/10/20 06:08 EHWO 200608Z AUTO 15001KT 5000 BR OVC120 07/06 Q1007 WHT
 
EHGR - Vliegveld Gilze-Rijen
Afstand tot weerstation: ZO 79 km
Update: 19-10-2019 00:25
NOT Current
Zwaar bewolkt
Zwaar bewolkt
 Wind van Z
Wind: Z 22 km/h
Temperatuur: 11°C
Dauwpunt: 7°C
Luchtvochtigheid: 77%
Luchtdruk: 1005 hPa
Bewolking: Zwaar bewolkt
Zicht: 10 km
Details Bewolking: Zwaar bewolkt 5182 m
2019/10/18 22:25 EHGR 182225Z AUTO 18012KT 140V230 9999 OVC170 11/07 Q1005 BLU
EHQE - Hoorn-A Sea (Platform ter hoogte van Noord Holland)
Afstand tot weerstation: N 103 km
Update: 20-10-2019 07:55

 Wind van ZW
Wind: ZW 26 km/h
Temperatuur: 13°C
Dauwpunt: 8°C
Luchtvochtigheid: 72%
Luchtdruk: 1006 hPa
Zicht: 10 km
2019/10/20 05:55 EHQE 200555Z AUTO 22014KT 9999 ////// 13/08 Q1006 W///H///
 
EHKD - Marinebasis De Kooy (Den Helder)
Afstand tot weerstation: NNO 114 km
Update: 20-10-2019 07:55
Zwaar bewolkt
Zwaar bewolkt
 Wind van Z
Wind: Z 9 km/h
Temperatuur: 8°C
Gevoelstemperatuur: 6°C
Dauwpunt: 8°C
Luchtvochtigheid: 100%
Luchtdruk: 1006 hPa
Bewolking: Zwaar bewolkt
Zicht: 10 km
Details Bewolking: Zwaar bewolkt 6401 m
2019/10/20 05:55 EHKD 200555Z AUTO 18005KT 9999 OVC210 08/08 Q1006 BLU 18005KT 9999 FEW022
EHEH - Vliegveld Eindhoven
Afstand tot weerstation: OZO 115 km
Update: 20-10-2019 08:12
Mist, Zwaar bewolkt
Mist, Zwaar bewolkt
 Wind van OZO
Wind: OZO 4 km/h
Temperatuur: 9°C
Dauwpunt: 8°C
Luchtvochtigheid: 94%
Luchtdruk: 1007 hPa
Overzicht: Mist
Bewolking: Zwaar bewolkt
Zicht: 1 km
Details Bewolking: Overwegend bewolkt 2438 m
Zwaar bewolkt 4877 m
2019/10/20 06:12 EHEH 200612Z AUTO 12002KT 1100 R21/P3000N BR BKN080 OVC160 09/08 Q1007 AMB VRB03KT 3000 BR BKN150 TEMPO 0500 BCFG
 
EHVK - Vliegveld Volkel
Afstand tot weerstation: OZO 124 km
Update: 20-10-2019 08:06
Mist, Zwaar bewolkt
Mist, Zwaar bewolkt
 Wind van ZZO
Wind: ZZO 6 km/h
Temperatuur: 9°C
Dauwpunt: 9°C
Luchtvochtigheid: 100%
Luchtdruk: 1007 hPa
Overzicht: Mist
Bewolking: Zwaar bewolkt
Zicht: 4 km
Details Bewolking: Overwegend bewolkt 3353 m
Zwaar bewolkt 5182 m
2019/10/20 06:06 EHVK 200606Z AUTO 15003KT 120V180 3900 BR BKN110 OVC170 09/09 Q1007 GRN
EHDL - Vliegveld Deelen
Afstand tot weerstation: O 128 km
Update: 20-10-2019 07:55
Mist, Zwaar bewolkt
Mist, Zwaar bewolkt
 Wind van ZO
Wind: ZO 6 km/h
Temperatuur: 8°C
Dauwpunt: 8°C
Luchtvochtigheid: 100%
Luchtdruk: 1008 hPa
Overzicht: Mist
Bewolking: Zwaar bewolkt
Zicht: 0 km
Details Bewolking: Enkele wolken 0 m
Zwaar bewolkt 5486 m
2019/10/20 05:55 EHDL 200555Z AUTO 13003KT 090V160 0400 FG FEW000 OVC180 08/08 Q1008 RED